createdAt,value
2023-01-19T00:00:53.274Z,18.20
2023-01-19T00:03:20.106Z,17.60
2023-01-19T00:05:47.497Z,17.38
2023-01-19T00:08:15.009Z,17.10
2023-01-19T00:10:44.131Z,17.60
2023-01-19T00:13:11.028Z,16.92
2023-01-19T00:15:37.906Z,16.47
2023-01-19T00:18:04.945Z,16.80
2023-01-19T00:20:32.807Z,16.80
2023-01-19T00:25:27.226Z,16.55
2023-01-19T00:27:54.184Z,16.70
2023-01-19T00:30:21.017Z,16.52
2023-01-19T00:32:47.757Z,17.15
2023-01-19T00:35:14.979Z,16.08
2023-01-19T00:37:46.001Z,16.60
2023-01-19T00:40:14.014Z,18.20
2023-01-19T00:42:40.963Z,17.02
2023-01-19T00:45:09.226Z,17.20
2023-01-19T00:47:36.114Z,16.58
2023-01-19T00:50:03.421Z,16.13
2023-01-19T00:52:30.168Z,16.38
2023-01-19T00:54:57.213Z,16.77
2023-01-19T00:57:24.125Z,17.30
2023-01-19T00:59:50.958Z,13.45
2023-01-19T01:02:18.073Z,16.10
2023-01-19T01:04:45.288Z,16.98
2023-01-19T01:07:14.737Z,15.57
2023-01-19T01:09:41.564Z,16.75
2023-01-19T01:12:08.343Z,16.88
2023-01-19T01:14:35.315Z,17.23
2023-01-19T01:17:02.091Z,16.60
2023-01-19T01:19:28.953Z,16.52
2023-01-19T01:21:55.771Z,15.55
2023-01-19T01:24:22.623Z,15.90
2023-01-19T01:26:49.408Z,15.43
2023-01-19T01:29:16.303Z,11.82
2023-01-19T01:31:43.158Z,15.65
2023-01-19T01:34:10.044Z,14.73
2023-01-19T01:36:36.823Z,14.93
2023-01-19T01:39:04.104Z,15.10
2023-01-19T01:41:31.385Z,16.17
2023-01-19T01:44:01.535Z,15.90
2023-01-19T01:46:30.524Z,15.52
2023-01-19T01:49:13.480Z,15.48
2023-01-19T01:51:43.985Z,16.35
2023-01-19T01:54:10.731Z,15.07
2023-01-19T01:56:44.217Z,15.30
2023-01-19T01:59:26.325Z,14.27
2023-01-19T02:02:18.418Z,14.13
2023-01-19T02:04:53.079Z,13.65
2023-01-19T02:07:51.052Z,14.30
2023-01-19T02:10:37.528Z,14.10
2023-01-19T02:13:23.032Z,14.35
2023-01-19T02:15:55.341Z,14.85
2023-01-19T02:18:24.733Z,15.05
2023-01-19T02:21:13.676Z,15.23
2023-01-19T02:24:03.012Z,15.20
2023-01-19T02:26:33.600Z,15.77
2023-01-19T02:29:07.216Z,15.10
2023-01-19T02:31:37.179Z,14.02
2023-01-19T02:34:06.611Z,14.57
2023-01-19T02:37:00.114Z,14.65
2023-01-19T02:39:36.354Z,13.95
2023-01-19T02:42:12.728Z,14.68
2023-01-19T02:44:43.358Z,14.18
2023-01-19T02:47:10.375Z,14.95
2023-01-19T02:49:37.683Z,13.93
2023-01-19T02:52:05.797Z,14.95
2023-01-19T02:55:05.865Z,15.35
2023-01-19T02:57:56.097Z,14.82
2023-01-19T03:00:50.357Z,14.98
2023-01-19T03:03:27.334Z,13.73
2023-01-19T03:06:15.716Z,16.02
2023-01-19T03:08:56.797Z,15.40
2023-01-19T03:11:26.424Z,15.50
2023-01-19T03:14:23.409Z,15.90
2023-01-19T03:16:59.106Z,15.85
2023-01-19T03:19:39.225Z,17.55
2023-01-19T03:22:13.237Z,15.75
2023-01-19T03:24:46.010Z,15.43
2023-01-19T03:27:25.322Z,15.60
2023-01-19T03:30:11.031Z,16.13
2023-01-19T03:32:45.892Z,15.93
2023-01-19T03:35:15.607Z,14.98
2023-01-19T03:37:47.324Z,15.68
2023-01-19T03:40:14.560Z,15.95
2023-01-19T03:42:42.272Z,18.75
2023-01-19T03:47:36.328Z,16.75
2023-01-19T03:50:07.243Z,17.15
2023-01-19T03:52:34.463Z,16.98
2023-01-19T03:55:04.368Z,17.92
2023-01-19T03:57:32.232Z,19.10
2023-01-19T04:02:25.775Z,18.70
2023-01-19T04:04:52.584Z,18.50
2023-01-19T04:07:19.511Z,18.77
2023-01-19T04:09:46.252Z,18.63
2023-01-19T04:12:13.044Z,19.23
2023-01-19T04:14:39.821Z,20.00
2023-01-19T04:17:06.661Z,19.05
2023-01-19T04:19:33.466Z,19.15
2023-01-19T04:22:02.008Z,20.08
2023-01-19T04:24:28.746Z,19.52
2023-01-19T04:26:55.575Z,20.98
2023-01-19T04:29:22.288Z,19.35
2023-01-19T04:31:49.093Z,20.17
2023-01-19T04:34:15.940Z,20.52
2023-01-19T04:36:42.956Z,20.02
2023-01-19T04:39:11.634Z,19.80
2023-01-19T04:41:38.446Z,20.77
2023-01-19T04:44:05.887Z,21.13
2023-01-19T04:46:32.875Z,20.30
2023-01-19T04:49:00.322Z,22.30
2023-01-19T04:51:28.625Z,21.08
2023-01-19T04:53:55.536Z,20.33
2023-01-19T04:56:22.414Z,21.08
2023-01-19T04:58:49.252Z,21.90
2023-01-19T05:01:16.121Z,21.47
2023-01-19T05:03:42.942Z,21.23
2023-01-19T05:06:09.732Z,21.08
2023-01-19T05:08:36.449Z,21.80
2023-01-19T05:11:03.531Z,21.95
2023-01-19T05:13:30.449Z,22.98
2023-01-19T05:15:57.242Z,25.67
2023-01-19T05:18:24.100Z,28.80
2023-01-19T05:20:51.653Z,24.07
2023-01-19T05:23:18.527Z,22.85
2023-01-19T05:25:45.349Z,21.00
2023-01-19T05:28:12.439Z,21.45
2023-01-19T05:30:39.591Z,16.40
2023-01-19T05:33:06.340Z,20.57
2023-01-19T05:35:36.155Z,21.10
2023-01-19T05:38:03.992Z,21.20
2023-01-19T05:40:31.351Z,20.98
2023-01-19T05:43:01.775Z,20.45
2023-01-19T05:45:29.088Z,20.10
2023-01-19T05:47:55.877Z,20.70
2023-01-19T05:50:23.116Z,20.67
2023-01-19T05:52:49.933Z,21.27
2023-01-19T05:55:16.835Z,21.83
2023-01-19T05:57:43.869Z,20.77
2023-01-19T06:00:11.479Z,20.75
2023-01-19T06:02:39.951Z,21.70
2023-01-19T06:05:06.965Z,20.45
2023-01-19T06:07:33.943Z,19.40
2023-01-19T06:10:00.920Z,20.67
2023-01-19T06:12:28.222Z,19.92
2023-01-19T06:14:55.051Z,20.70
2023-01-19T06:17:21.906Z,19.55
2023-01-19T06:19:48.716Z,19.63
2023-01-19T06:22:15.782Z,20.05
2023-01-19T06:24:42.819Z,19.63
2023-01-19T06:27:11.147Z,19.07
2023-01-19T06:29:38.041Z,19.45
2023-01-19T06:32:05.211Z,20.05
2023-01-19T06:34:32.067Z,19.50
2023-01-19T06:36:59.250Z,19.90
2023-01-19T06:39:26.479Z,18.95
2023-01-19T06:41:53.463Z,18.48
2023-01-19T06:44:20.234Z,19.00
2023-01-19T06:46:48.851Z,17.63
2023-01-19T06:49:15.692Z,18.40
2023-01-19T06:51:42.533Z,16.65
2023-01-19T06:54:09.479Z,17.67
2023-01-19T06:56:36.330Z,18.27
2023-01-19T06:59:03.278Z,17.27
2023-01-19T07:01:30.144Z,17.67
2023-01-19T07:03:57.056Z,16.80
2023-01-19T07:06:24.267Z,17.42
2023-01-19T07:08:51.160Z,16.92
2023-01-19T07:11:25.748Z,17.67
2023-01-19T07:13:57.884Z,16.77
2023-01-19T07:16:24.985Z,18.05
2023-01-19T07:18:51.940Z,16.67
2023-01-19T07:21:19.134Z,17.05
2023-01-19T07:23:49.195Z,17.45
2023-01-19T07:26:18.578Z,17.73
2023-01-19T07:28:47.380Z,16.42
2023-01-19T07:31:15.802Z,16.00
2023-01-19T07:36:13.634Z,14.50
2023-01-19T07:41:10.387Z,14.20
2023-01-19T07:43:37.199Z,14.57
2023-01-19T07:46:06.640Z,14.98
2023-01-19T07:48:33.575Z,14.05
2023-01-19T07:51:05.173Z,14.60
2023-01-19T07:53:32.275Z,15.05
2023-01-19T07:55:59.141Z,15.10
2023-01-19T07:58:26.549Z,14.50
2023-01-19T08:00:53.608Z,14.32
2023-01-19T08:03:20.607Z,13.43
2023-01-19T08:05:51.995Z,14.00
2023-01-19T08:08:19.863Z,13.85
2023-01-19T08:13:16.259Z,12.48
2023-01-19T08:15:43.234Z,12.18
2023-01-19T08:18:11.523Z,11.57
2023-01-19T08:20:38.377Z,10.70
2023-01-19T08:23:05.472Z,10.60
2023-01-19T08:25:34.325Z,10.60
2023-01-19T08:28:01.460Z,11.20
2023-01-19T08:30:28.387Z,10.82
2023-01-19T08:33:03.776Z,10.63
2023-01-19T08:35:36.946Z,10.48
2023-01-19T08:38:05.106Z,10.45
2023-01-19T08:40:34.815Z,10.07
2023-01-19T08:43:07.981Z,10.60
2023-01-19T08:45:48.703Z,10.15
2023-01-19T08:48:18.040Z,9.52
2023-01-19T08:50:48.910Z,9.80
2023-01-19T08:53:16.736Z,9.70
2023-01-19T08:55:43.768Z,9.63
2023-01-19T08:58:10.887Z,10.03
2023-01-19T09:00:39.238Z,10.70
2023-01-19T09:03:08.199Z,9.68
2023-01-19T09:05:37.339Z,9.13
2023-01-19T09:08:09.887Z,9.70
2023-01-19T09:10:39.002Z,9.02
2023-01-19T09:13:08.454Z,8.75
2023-01-19T09:15:37.775Z,9.50
2023-01-19T09:18:07.714Z,8.55
2023-01-19T09:20:36.147Z,8.85
2023-01-19T09:23:03.427Z,8.50
2023-01-19T09:25:33.039Z,9.20
2023-01-19T09:28:01.009Z,8.85
2023-01-19T09:30:28.321Z,8.60
2023-01-19T09:32:55.242Z,9.33
2023-01-19T09:35:22.149Z,8.73
2023-01-19T09:37:49.045Z,8.25
2023-01-19T09:40:17.670Z,8.40
2023-01-19T09:42:55.713Z,8.10
2023-01-19T09:47:56.268Z,8.13
2023-01-19T09:50:35.223Z,8.63
2023-01-19T09:53:13.876Z,8.38
2023-01-19T09:55:42.591Z,8.93
2023-01-19T09:58:16.273Z,8.45
2023-01-19T10:00:50.623Z,8.60
2023-01-19T10:03:20.550Z,8.43
2023-01-19T10:05:53.399Z,9.02
2023-01-19T10:08:42.106Z,8.60
2023-01-19T10:11:52.903Z,8.82
2023-01-19T10:14:36.570Z,8.02
2023-01-19T10:17:15.568Z,10.07
2023-01-19T10:19:47.093Z,8.82
2023-01-19T10:22:22.160Z,7.85
2023-01-19T10:24:53.614Z,7.82
2023-01-19T10:27:26.119Z,8.38
2023-01-19T10:29:55.483Z,8.10
2023-01-19T10:32:32.825Z,8.63
2023-01-19T10:35:00.952Z,8.23
2023-01-19T10:40:03.258Z,8.52
2023-01-19T10:42:30.826Z,8.27
2023-01-19T10:44:57.988Z,7.45
2023-01-19T10:47:36.882Z,7.75
2023-01-19T10:50:25.401Z,8.48
2023-01-19T10:52:55.028Z,8.25
2023-01-19T10:55:32.992Z,8.57
2023-01-19T10:58:00.753Z,7.70
2023-01-19T11:00:33.512Z,8.05
2023-01-19T11:03:01.521Z,7.82
2023-01-19T11:05:32.127Z,7.55
2023-01-19T11:07:59.395Z,7.97
2023-01-19T11:10:30.370Z,7.88
2023-01-19T11:13:04.083Z,7.63
2023-01-19T11:15:33.144Z,7.65
2023-01-19T11:18:01.465Z,7.43
2023-01-19T11:20:51.098Z,7.38
2023-01-19T11:23:45.834Z,7.28
2023-01-19T11:26:26.278Z,6.93
2023-01-19T11:28:55.983Z,7.40
2023-01-19T11:31:29.164Z,6.57
2023-01-19T11:34:01.953Z,7.00
2023-01-19T11:36:36.739Z,7.28
2023-01-19T11:39:21.234Z,7.00
2023-01-19T11:41:52.187Z,6.60
2023-01-19T11:44:55.694Z,6.93
2023-01-19T11:47:31.971Z,7.78
2023-01-19T11:50:06.620Z,7.45
2023-01-19T11:52:50.525Z,7.28
2023-01-19T11:55:24.529Z,7.47
2023-01-19T11:57:54.466Z,7.15
2023-01-19T12:00:28.581Z,6.55
2023-01-19T12:03:05.059Z,6.47
2023-01-19T12:05:34.096Z,6.78
2023-01-19T12:08:06.742Z,6.65
2023-01-19T12:10:38.054Z,7.35
2023-01-19T12:13:04.951Z,6.60
2023-01-19T12:15:42.882Z,7.65
2023-01-19T12:20:50.655Z,6.60
2023-01-19T12:23:29.459Z,6.97
2023-01-19T12:26:20.078Z,6.90
2023-01-19T12:28:49.801Z,6.85
2023-01-19T12:31:21.617Z,6.90
2023-01-19T12:33:48.847Z,7.13
2023-01-19T12:36:35.228Z,7.10
2023-01-19T12:39:11.020Z,6.75
2023-01-19T12:41:42.454Z,6.70
2023-01-19T12:44:12.205Z,6.10
2023-01-19T12:46:57.955Z,6.78
2023-01-19T12:49:30.501Z,6.60
2023-01-19T12:52:23.271Z,6.63
2023-01-19T12:54:51.675Z,7.18
2023-01-19T12:57:32.400Z,6.50
2023-01-19T13:00:02.107Z,7.07
2023-01-19T13:02:55.055Z,6.60
2023-01-19T13:05:32.627Z,6.60
2023-01-19T13:08:02.998Z,7.15
2023-01-19T13:11:09.520Z,7.10
2023-01-19T13:13:40.332Z,6.75
2023-01-19T13:16:22.425Z,6.07
2023-01-19T13:18:57.582Z,5.80
2023-01-19T13:21:32.483Z,5.10
2023-01-19T13:24:05.727Z,5.38
2023-01-19T13:26:35.100Z,5.43
2023-01-19T13:29:10.703Z,7.22
2023-01-19T13:31:40.829Z,6.00
2023-01-19T13:34:20.602Z,5.07
2023-01-19T13:36:54.528Z,5.32
2023-01-19T13:39:34.146Z,5.43
2023-01-19T13:42:38.876Z,5.95
2023-01-19T13:45:30.744Z,5.95
2023-01-19T13:47:59.934Z,6.32
2023-01-19T13:50:29.967Z,6.60
2023-01-19T13:52:58.794Z,6.10
2023-01-19T13:55:30.899Z,6.28
2023-01-19T13:57:57.890Z,6.10
2023-01-19T14:00:27.343Z,5.82
2023-01-19T14:03:09.480Z,6.72
2023-01-19T14:05:38.955Z,6.68
2023-01-19T14:08:08.785Z,6.93
2023-01-19T14:10:38.245Z,6.88
2023-01-19T14:13:13.541Z,6.72
2023-01-19T14:15:40.845Z,7.53
2023-01-19T14:18:19.270Z,6.60
2023-01-19T14:21:08.924Z,7.00
2023-01-19T14:23:52.526Z,7.32
2023-01-19T14:26:45.047Z,7.75
2023-01-19T14:29:33.785Z,7.43
2023-01-19T14:32:00.583Z,7.57
2023-01-19T14:34:47.232Z,7.80
2023-01-19T14:37:21.843Z,7.82
2023-01-19T14:40:04.722Z,7.90
2023-01-19T14:42:35.785Z,7.63
2023-01-19T14:45:07.946Z,7.75
2023-01-19T14:47:44.358Z,8.10
2023-01-19T14:50:19.585Z,8.07
2023-01-19T14:53:08.084Z,8.43
2023-01-19T14:55:52.158Z,9.98
2023-01-19T14:58:20.701Z,9.18
2023-01-19T15:00:49.134Z,8.75
2023-01-19T15:03:16.694Z,9.27
2023-01-19T15:05:46.476Z,8.77
2023-01-19T15:08:26.284Z,9.32
2023-01-19T15:10:53.311Z,9.18
2023-01-19T15:13:23.738Z,9.63
2023-01-19T15:15:51.432Z,9.75
2023-01-19T15:18:23.810Z,9.98
2023-01-19T15:20:50.723Z,9.68
2023-01-19T15:23:17.723Z,10.55
2023-01-19T15:25:44.723Z,11.15
2023-01-19T15:28:13.450Z,10.63
2023-01-19T15:30:40.388Z,10.65
2023-01-19T15:33:10.753Z,10.02
2023-01-19T15:35:37.567Z,10.38
2023-01-19T15:38:04.336Z,10.50
2023-01-19T15:40:31.971Z,11.25
2023-01-19T15:42:58.742Z,10.60
2023-01-19T15:45:37.907Z,10.32
2023-01-19T15:48:07.373Z,11.50
2023-01-19T15:50:37.576Z,11.07
2023-01-19T15:53:04.892Z,10.65
2023-01-19T15:55:31.891Z,9.05
2023-01-19T15:58:01.657Z,11.18
2023-01-19T16:00:32.419Z,11.02
2023-01-19T16:03:00.608Z,11.43
2023-01-19T16:05:37.645Z,10.65
2023-01-19T16:08:09.567Z,11.98
2023-01-19T16:10:36.406Z,11.98
2023-01-19T16:13:04.285Z,14.68
2023-01-19T16:15:31.135Z,14.68
2023-01-19T16:17:58.409Z,12.55
2023-01-19T16:20:25.493Z,12.10
2023-01-19T16:22:52.921Z,9.07
2023-01-19T16:25:22.606Z,11.30
2023-01-19T16:27:50.349Z,11.43
2023-01-19T16:30:19.282Z,11.13
2023-01-19T16:32:46.710Z,10.02
2023-01-19T16:35:15.479Z,10.63
2023-01-19T16:37:42.466Z,10.40
2023-01-19T16:40:10.038Z,13.98
2023-01-19T16:42:36.985Z,10.65
2023-01-19T16:45:04.095Z,9.55
2023-01-19T16:47:30.945Z,10.13
2023-01-19T16:49:57.759Z,9.52
2023-01-19T16:52:24.841Z,9.50
2023-01-19T16:54:54.569Z,9.75
2023-01-19T16:57:21.465Z,9.20
2023-01-19T16:59:48.328Z,9.40
2023-01-19T17:02:15.180Z,9.20
2023-01-19T17:04:41.997Z,9.50
2023-01-19T17:07:08.846Z,9.40
2023-01-19T17:09:35.749Z,9.10
2023-01-19T17:12:02.754Z,9.90
2023-01-19T17:14:29.880Z,9.05
2023-01-19T17:16:56.780Z,9.57
2023-01-19T17:19:23.709Z,9.35
2023-01-19T17:21:53.544Z,9.85
2023-01-19T17:24:20.450Z,9.95
2023-01-19T17:26:48.671Z,8.90
2023-01-19T17:29:16.547Z,8.73
2023-01-19T17:31:44.399Z,9.30
2023-01-19T17:34:11.575Z,9.30
2023-01-19T17:36:38.694Z,9.30
2023-01-19T17:39:08.550Z,9.07
2023-01-19T17:41:36.009Z,8.82
2023-01-19T17:44:04.696Z,10.05
2023-01-19T17:46:35.614Z,8.88
2023-01-19T17:49:04.639Z,8.85
2023-01-19T17:51:32.527Z,8.68
2023-01-19T17:53:59.710Z,9.32
2023-01-19T17:56:30.161Z,9.10
2023-01-19T17:58:58.055Z,8.70
2023-01-19T18:01:30.881Z,10.30
2023-01-19T18:03:58.820Z,9.85
2023-01-19T18:06:26.264Z,11.85
2023-01-19T18:08:54.195Z,9.23
2023-01-19T18:13:50.655Z,9.07
2023-01-19T18:16:26.991Z,8.93
2023-01-19T18:18:55.711Z,9.05
2023-01-19T18:21:24.332Z,9.10
2023-01-19T18:23:51.562Z,9.10
2023-01-19T18:26:21.306Z,9.03
2023-01-19T18:28:49.104Z,9.23
2023-01-19T18:31:18.631Z,8.68
2023-01-19T18:33:46.804Z,8.93
2023-01-19T18:38:41.108Z,8.43
2023-01-19T18:41:19.939Z,8.77
2023-01-19T18:43:47.907Z,8.88
2023-01-19T18:46:17.934Z,8.85
2023-01-19T18:48:44.857Z,8.40
2023-01-19T18:51:13.859Z,8.73
2023-01-19T18:53:40.956Z,8.80
2023-01-19T18:56:10.571Z,9.07
2023-01-19T18:58:38.599Z,8.50
2023-01-19T19:01:24.599Z,8.35
2023-01-19T19:03:52.272Z,8.82
2023-01-19T19:06:20.827Z,8.30
2023-01-19T19:08:51.853Z,8.70
2023-01-19T19:11:20.188Z,8.55
2023-01-19T19:13:51.242Z,9.38
2023-01-19T19:16:18.229Z,8.75
2023-01-19T19:18:49.937Z,9.02
2023-01-19T19:21:18.681Z,9.20
2023-01-19T19:23:50.395Z,11.43
2023-01-19T19:26:17.454Z,9.45
2023-01-19T19:28:45.760Z,9.43
2023-01-19T19:31:15.041Z,8.82
2023-01-19T19:33:42.316Z,8.70
2023-01-19T19:36:10.406Z,8.77
2023-01-19T19:38:37.573Z,9.02
2023-01-19T19:41:09.433Z,9.03
2023-01-19T19:43:37.128Z,9.20
2023-01-19T19:46:10.343Z,8.82
2023-01-19T19:48:39.336Z,9.18
2023-01-19T19:51:18.532Z,9.18
2023-01-19T19:53:49.583Z,9.60
2023-01-19T19:56:20.909Z,9.57
2023-01-19T19:58:48.445Z,9.02
2023-01-19T20:01:20.340Z,9.93
2023-01-19T20:03:50.003Z,9.63
2023-01-19T20:06:22.318Z,9.50
2023-01-19T20:08:51.568Z,10.93
2023-01-19T20:11:21.478Z,10.55
2023-01-19T20:13:48.717Z,10.07
2023-01-19T20:16:17.863Z,10.33
2023-01-19T20:18:51.380Z,10.30
2023-01-19T20:21:32.555Z,10.50
2023-01-19T20:24:02.647Z,10.55
2023-01-19T20:26:33.116Z,10.73
2023-01-19T20:29:03.474Z,10.10
2023-01-19T20:31:33.877Z,10.00
2023-01-19T20:34:04.433Z,9.50
2023-01-19T20:36:31.520Z,9.65
2023-01-19T20:38:58.908Z,9.30
2023-01-19T20:41:26.336Z,8.90
2023-01-19T20:43:53.433Z,8.68
2023-01-19T20:46:20.424Z,9.10
2023-01-19T20:48:52.845Z,9.68
2023-01-19T20:51:20.384Z,10.27
2023-01-19T20:54:03.044Z,9.88
2023-01-19T20:56:29.893Z,9.65
2023-01-19T20:58:58.849Z,10.38
2023-01-19T21:01:26.113Z,10.35
2023-01-19T21:03:53.461Z,9.57
2023-01-19T21:06:21.950Z,9.67
2023-01-19T21:08:51.586Z,9.77
2023-01-19T21:11:20.899Z,9.32
2023-01-19T21:13:48.975Z,10.30
2023-01-19T21:16:16.009Z,9.02
2023-01-19T21:18:43.031Z,8.70
2023-01-19T21:21:17.808Z,9.65
2023-01-19T21:23:56.775Z,9.13
2023-01-19T21:26:23.695Z,9.55
2023-01-19T21:28:51.358Z,9.95
2023-01-19T21:31:18.441Z,9.80
2023-01-19T21:33:45.401Z,10.25
2023-01-19T21:36:12.279Z,10.25
2023-01-19T21:38:43.662Z,9.30
2023-01-19T21:41:12.730Z,9.50
2023-01-19T21:43:41.649Z,10.25
2023-01-19T21:46:13.789Z,9.77
2023-01-19T21:48:42.321Z,10.20
2023-01-19T21:51:09.524Z,14.70
2023-01-19T21:53:36.290Z,13.53
2023-01-19T21:56:05.233Z,11.85
2023-01-19T21:58:32.005Z,11.38
2023-01-19T22:01:04.168Z,12.35
2023-01-19T22:03:31.261Z,11.32
2023-01-19T22:06:07.123Z,11.85
2023-01-19T22:08:35.027Z,10.85
2023-01-19T22:11:06.607Z,11.55
2023-01-19T22:13:35.177Z,11.48
2023-01-19T22:16:04.010Z,11.15
2023-01-19T22:18:30.875Z,11.15
2023-01-19T22:21:17.696Z,11.90
2023-01-19T22:23:48.514Z,11.40
2023-01-19T22:26:15.481Z,11.40
2023-01-19T22:28:42.239Z,12.68
2023-01-19T22:31:19.413Z,13.77
2023-01-19T22:33:46.617Z,13.43
2023-01-19T22:36:28.468Z,13.47
2023-01-19T22:39:01.230Z,13.15
2023-01-19T22:41:31.137Z,13.00
2023-01-19T22:44:00.295Z,11.88
2023-01-19T22:46:30.281Z,12.85
2023-01-19T22:48:59.031Z,13.00
2023-01-19T22:51:27.766Z,12.20
2023-01-19T22:53:54.891Z,12.10
2023-01-19T22:56:26.691Z,12.07
2023-01-19T22:58:54.459Z,12.38
2023-01-19T23:01:24.293Z,12.90
2023-01-19T23:03:51.874Z,12.43
2023-01-19T23:06:21.409Z,12.27
2023-01-19T23:08:49.011Z,13.00
2023-01-19T23:11:19.091Z,12.77
2023-01-19T23:13:46.386Z,12.80
2023-01-19T23:16:14.464Z,11.90
2023-01-19T23:18:42.165Z,12.48
2023-01-19T23:21:17.343Z,12.23
2023-01-19T23:23:44.953Z,12.25
2023-01-19T23:26:15.171Z,12.82
2023-01-19T23:28:42.740Z,12.77
2023-01-19T23:31:33.539Z,13.05
2023-01-19T23:34:06.494Z,13.20
2023-01-19T23:36:35.155Z,13.60
2023-01-19T23:39:17.279Z,13.45
2023-01-19T23:41:48.191Z,13.05
2023-01-19T23:44:16.960Z,12.63
2023-01-19T23:46:44.000Z,13.18
2023-01-19T23:49:11.563Z,12.82
2023-01-19T23:51:39.454Z,13.30
2023-01-19T23:54:06.411Z,13.35
2023-01-19T23:56:36.869Z,12.65
2023-01-19T23:59:11.867Z,13.30
